createdAt,value
2023-04-28T00:01:53.648Z,11.75
2023-04-28T00:04:21.520Z,11.63
2023-04-28T00:06:49.421Z,11.55
2023-04-28T00:09:16.840Z,11.39
2023-04-28T00:11:47.094Z,11.34
2023-04-28T00:14:15.129Z,11.50
2023-04-28T00:16:43.175Z,11.57
2023-04-28T00:19:10.682Z,11.78
2023-04-28T00:21:38.168Z,11.59
2023-04-28T00:24:05.705Z,11.72
2023-04-28T00:26:33.114Z,11.79
2023-04-28T00:29:00.525Z,11.74
2023-04-28T00:31:27.900Z,11.71
2023-04-28T00:33:55.307Z,11.38
2023-04-28T00:36:22.796Z,11.53
2023-04-28T00:38:50.311Z,11.56
2023-04-28T00:41:17.736Z,11.50
2023-04-28T00:43:49.854Z,11.54
2023-04-28T00:46:25.477Z,11.38
2023-04-28T00:48:53.218Z,11.18
2023-04-28T00:51:21.185Z,11.22
2023-04-28T00:53:49.124Z,11.47
2023-04-28T00:56:16.680Z,11.07
2023-04-28T00:58:44.175Z,11.46
2023-04-28T01:01:11.669Z,11.44
2023-04-28T01:03:40.159Z,11.33
2023-04-28T01:06:08.939Z,11.46
2023-04-28T01:08:37.020Z,11.34
2023-04-28T01:11:04.607Z,11.59
2023-04-28T01:13:32.057Z,11.80
2023-04-28T01:16:00.105Z,11.81
2023-04-28T01:18:27.712Z,11.42
2023-04-28T01:20:55.120Z,11.28
2023-04-28T01:23:22.504Z,11.37
2023-04-28T01:25:49.867Z,11.44
2023-04-28T01:28:17.275Z,10.94
2023-04-28T01:30:44.702Z,11.22
2023-04-28T01:33:12.130Z,11.10
2023-04-28T01:35:39.576Z,11.09
2023-04-28T01:38:07.002Z,11.36
2023-04-28T01:40:34.550Z,11.06
2023-04-28T01:43:01.926Z,11.08
2023-04-28T01:45:29.337Z,11.06
2023-04-28T01:47:56.774Z,11.08
2023-04-28T01:50:24.170Z,11.05
2023-04-28T01:52:51.588Z,11.52
2023-04-28T01:55:19.088Z,11.36
2023-04-28T01:57:46.475Z,11.46
2023-04-28T02:00:14.022Z,11.14
2023-04-28T02:02:41.921Z,11.16
2023-04-28T02:05:09.658Z,11.38
2023-04-28T02:07:37.089Z,11.62
2023-04-28T02:10:04.564Z,11.35
2023-04-28T02:12:31.949Z,11.33
2023-04-28T02:14:59.318Z,11.43
2023-04-28T02:17:26.752Z,11.31
2023-04-28T02:19:57.643Z,11.18
2023-04-28T02:22:25.240Z,11.44
2023-04-28T02:24:52.772Z,11.25
2023-04-28T02:27:20.758Z,11.42
2023-04-28T02:29:48.185Z,11.32
2023-04-28T02:32:15.611Z,11.41
2023-04-28T02:34:43.018Z,11.17
2023-04-28T02:37:10.496Z,10.92
2023-04-28T02:39:37.908Z,11.20
2023-04-28T02:42:05.493Z,11.07
2023-04-28T02:44:34.062Z,10.95
2023-04-28T02:47:01.892Z,11.23
2023-04-28T02:49:29.505Z,10.93
2023-04-28T02:51:56.869Z,11.07
2023-04-28T02:54:28.283Z,11.21
2023-04-28T02:56:59.149Z,11.09
2023-04-28T02:59:27.174Z,10.88
2023-04-28T03:01:54.602Z,10.89
2023-04-28T03:04:22.453Z,11.32
2023-04-28T03:06:50.191Z,10.97
2023-04-28T03:09:17.653Z,10.89
2023-04-28T03:11:45.046Z,11.04
2023-04-28T03:14:12.407Z,11.05
2023-04-28T03:16:39.867Z,10.87
2023-04-28T03:19:07.238Z,11.10
2023-04-28T03:21:34.695Z,11.29
2023-04-28T03:24:03.510Z,10.88
2023-04-28T03:26:32.823Z,11.19
2023-04-28T03:29:00.257Z,10.92
2023-04-28T03:31:27.759Z,11.00
2023-04-28T03:33:55.311Z,11.40
2023-04-28T03:36:22.750Z,11.29
2023-04-28T03:38:50.158Z,11.22
2023-04-28T03:41:17.570Z,10.87
2023-04-28T03:43:45.057Z,10.86
2023-04-28T03:46:12.480Z,10.96
2023-04-28T03:48:39.927Z,10.98
2023-04-28T03:51:07.320Z,11.12
2023-04-28T03:53:34.720Z,11.19
2023-04-28T03:56:02.194Z,11.31
2023-04-28T03:58:29.627Z,10.98
2023-04-28T04:00:57.014Z,11.26
2023-04-28T04:03:26.430Z,11.14
2023-04-28T04:05:55.635Z,11.21
2023-04-28T04:08:23.250Z,11.12
2023-04-28T04:10:50.701Z,11.09
2023-04-28T04:13:18.109Z,10.93
2023-04-28T04:15:45.531Z,11.10
2023-04-28T04:18:13.287Z,11.23
2023-04-28T04:20:40.726Z,11.46
2023-04-28T04:23:08.194Z,11.38
2023-04-28T04:25:35.663Z,11.39
2023-04-28T04:28:03.367Z,11.35
2023-04-28T04:30:30.774Z,11.15
2023-04-28T04:32:58.194Z,11.17
2023-04-28T04:35:25.669Z,11.44
2023-04-28T04:37:53.135Z,11.31
2023-04-28T04:40:20.615Z,11.35
2023-04-28T04:42:48.030Z,11.38
2023-04-28T04:45:15.489Z,11.43
2023-04-28T04:47:43.058Z,11.19
2023-04-28T04:50:10.660Z,10.77
2023-04-28T04:52:38.355Z,10.99
2023-04-28T04:55:06.024Z,11.22
2023-04-28T04:57:33.563Z,11.54
2023-04-28T05:00:01.017Z,11.33
2023-04-28T05:02:28.588Z,11.47
2023-04-28T05:05:04.632Z,11.36
2023-04-28T05:07:40.177Z,11.75
2023-04-28T05:10:07.973Z,11.70
2023-04-28T05:12:35.451Z,11.65
2023-04-28T05:15:02.826Z,11.68
2023-04-28T05:17:30.287Z,11.61
2023-04-28T05:19:57.691Z,12.01
2023-04-28T05:22:26.027Z,12.20
2023-04-28T05:24:53.477Z,12.00
2023-04-28T05:27:20.953Z,11.70
2023-04-28T05:29:48.430Z,11.81
2023-04-28T05:32:16.048Z,11.88
2023-04-28T05:34:43.536Z,12.04
2023-04-28T05:37:11.496Z,12.00
2023-04-28T05:39:38.847Z,11.97
2023-04-28T05:42:06.269Z,12.09
2023-04-28T05:44:33.646Z,12.14
2023-04-28T05:47:01.384Z,11.95
2023-04-28T05:49:28.959Z,11.87
2023-04-28T05:51:56.333Z,12.06
2023-04-28T05:54:23.734Z,12.08
2023-04-28T05:56:51.276Z,12.09
2023-04-28T05:59:18.884Z,12.20
2023-04-28T06:01:46.610Z,12.10
2023-04-28T06:04:14.537Z,12.16
2023-04-28T06:06:42.228Z,12.36
2023-04-28T06:09:09.603Z,12.19
2023-04-28T06:11:37.037Z,12.43
2023-04-28T06:14:04.446Z,12.15
2023-04-28T06:16:31.912Z,12.04
2023-04-28T06:18:59.504Z,12.06
2023-04-28T06:21:27.419Z,11.87
2023-04-28T06:23:54.800Z,11.86
2023-04-28T06:26:22.283Z,11.80
2023-04-28T06:28:49.780Z,12.14
2023-04-28T06:31:17.321Z,11.96
2023-04-28T06:33:44.775Z,11.97
2023-04-28T06:36:13.898Z,12.17
2023-04-28T06:38:42.923Z,12.03
2023-04-28T06:41:10.942Z,12.38
2023-04-28T06:43:38.640Z,12.30
2023-04-28T06:46:06.135Z,12.30
2023-04-28T06:48:33.534Z,12.39
2023-04-28T06:51:00.858Z,12.31
2023-04-28T06:53:28.269Z,12.34
2023-04-28T06:55:56.430Z,12.49
2023-04-28T06:58:23.835Z,12.57
2023-04-28T07:00:51.345Z,12.55
2023-04-28T07:03:18.913Z,12.75
2023-04-28T07:05:46.496Z,12.76
2023-04-28T07:08:14.077Z,13.13
2023-04-28T07:10:41.927Z,12.65
2023-04-28T07:13:09.702Z,12.83
2023-04-28T07:15:37.287Z,12.72
2023-04-28T07:18:04.881Z,13.07
2023-04-28T07:20:32.366Z,13.19
2023-04-28T07:22:59.744Z,13.06
2023-04-28T07:25:27.307Z,13.37
2023-04-28T07:27:55.263Z,13.42
2023-04-28T07:30:27.750Z,13.64
2023-04-28T07:32:56.039Z,13.32
2023-04-28T07:35:23.712Z,13.46
2023-04-28T07:37:51.327Z,13.20
2023-04-28T07:40:19.470Z,13.68
2023-04-28T07:42:47.615Z,13.54
2023-04-28T07:45:15.872Z,13.71
2023-04-28T07:47:43.513Z,13.66
2023-04-28T07:50:12.450Z,13.45
2023-04-28T07:52:40.531Z,13.82
2023-04-28T07:55:08.010Z,13.86
2023-04-28T07:57:36.094Z,14.04
2023-04-28T08:00:03.586Z,14.05
2023-04-28T08:02:31.149Z,13.74
2023-04-28T08:04:58.911Z,13.63
2023-04-28T08:07:26.748Z,13.82
2023-04-28T08:09:55.242Z,13.71
2023-04-28T08:12:22.995Z,14.00
2023-04-28T08:14:50.508Z,13.99
2023-04-28T08:17:18.750Z,14.41
2023-04-28T08:19:46.458Z,14.37
2023-04-28T08:22:13.995Z,14.39
2023-04-28T08:24:41.681Z,14.60
2023-04-28T08:27:09.162Z,14.44
2023-04-28T08:29:36.561Z,14.56
2023-04-28T08:32:04.947Z,14.24
2023-04-28T08:34:32.704Z,14.24
2023-04-28T08:37:00.260Z,14.47
2023-04-28T08:39:28.045Z,14.74
2023-04-28T08:41:55.435Z,14.40
2023-04-28T08:44:23.677Z,14.74
2023-04-28T08:46:51.227Z,14.57
2023-04-28T08:49:19.571Z,14.82
2023-04-28T08:52:00.599Z,14.86
2023-04-28T08:54:31.651Z,14.86
2023-04-28T08:56:59.521Z,14.81
2023-04-28T08:59:27.314Z,14.78
2023-04-28T09:01:54.807Z,14.50
2023-04-28T09:04:22.671Z,14.79
2023-04-28T09:06:50.397Z,15.10
2023-04-28T09:09:25.135Z,15.09
2023-04-28T09:11:56.658Z,15.19
2023-04-28T09:14:24.569Z,15.35
2023-04-28T09:16:52.313Z,15.10
2023-04-28T09:19:19.877Z,15.21
2023-04-28T09:21:48.492Z,15.30
2023-04-28T09:24:26.999Z,15.48
2023-04-28T09:26:55.625Z,15.58
2023-04-28T09:29:23.586Z,15.53
2023-04-28T09:31:51.334Z,15.56
2023-04-28T09:34:18.990Z,15.69
2023-04-28T09:36:46.568Z,15.44
2023-04-28T09:39:13.988Z,15.40
2023-04-28T09:41:42.547Z,15.50
2023-04-28T09:44:17.864Z,15.46
2023-04-28T09:46:46.469Z,15.52
2023-04-28T09:49:14.359Z,15.56
2023-04-28T09:51:41.974Z,15.39
2023-04-28T09:54:09.444Z,15.39
2023-04-28T09:56:40.702Z,15.68
2023-04-28T09:59:08.351Z,15.73
2023-04-28T10:01:40.610Z,15.60
2023-04-28T10:04:08.790Z,15.68
2023-04-28T10:06:37.326Z,15.96
2023-04-28T10:09:04.819Z,15.62
2023-04-28T10:11:33.357Z,15.58
2023-04-28T10:14:00.998Z,15.44
2023-04-28T10:16:30.843Z,15.57
2023-04-28T10:18:58.744Z,15.32
2023-04-28T10:21:27.745Z,15.36
2023-04-28T10:23:55.087Z,15.47
2023-04-28T10:26:23.795Z,15.84
2023-04-28T10:28:52.382Z,15.80
2023-04-28T10:31:21.122Z,15.67
2023-04-28T10:33:49.554Z,15.69
2023-04-28T10:36:40.030Z,15.77
2023-04-28T10:39:12.102Z,15.85
2023-04-28T10:41:39.703Z,16.20
2023-04-28T10:44:25.963Z,16.35
2023-04-28T10:47:03.834Z,16.23
2023-04-28T10:49:50.902Z,16.39
2023-04-28T10:52:37.888Z,16.12
2023-04-28T10:55:24.127Z,16.31
2023-04-28T10:58:11.868Z,16.20
2023-04-28T11:00:40.037Z,15.99
2023-04-28T11:03:07.830Z,16.17
2023-04-28T11:05:36.709Z,16.29
2023-04-28T11:08:19.631Z,16.46
2023-04-28T11:11:05.688Z,15.86
2023-04-28T11:13:34.419Z,16.59
2023-04-28T11:16:05.663Z,16.51
2023-04-28T11:18:44.741Z,16.34
2023-04-28T11:21:12.533Z,16.56
2023-04-28T11:23:40.666Z,16.69
2023-04-28T11:26:08.268Z,17.01
2023-04-28T11:28:36.563Z,17.13
2023-04-28T11:31:13.436Z,16.98
2023-04-28T11:33:42.212Z,17.13
2023-04-28T11:36:22.861Z,17.34
2023-04-28T11:38:50.335Z,17.01
2023-04-28T11:41:17.789Z,17.11
2023-04-28T11:43:47.723Z,17.18
2023-04-28T11:46:19.391Z,16.95
2023-04-28T11:48:47.013Z,16.95
2023-04-28T11:51:34.022Z,16.70
2023-04-28T11:54:02.517Z,17.03
2023-04-28T11:56:30.471Z,17.14
2023-04-28T11:59:04.322Z,17.34
2023-04-28T12:01:32.068Z,17.30
2023-04-28T12:03:59.736Z,16.98
2023-04-28T12:06:28.010Z,17.16
2023-04-28T12:08:55.537Z,17.26
2023-04-28T12:11:24.233Z,17.07
2023-04-28T12:14:06.243Z,17.27
2023-04-28T12:16:48.309Z,17.42
2023-04-28T12:19:16.471Z,17.49
2023-04-28T12:21:44.037Z,17.08
2023-04-28T12:24:18.564Z,17.14
2023-04-28T12:26:46.090Z,16.91
2023-04-28T12:29:32.119Z,16.90
2023-04-28T12:31:59.595Z,16.72
2023-04-28T12:34:29.411Z,16.73
2023-04-28T12:36:56.913Z,17.17
2023-04-28T12:39:24.907Z,17.11
2023-04-28T12:41:52.326Z,17.44
2023-04-28T12:44:20.445Z,17.23
2023-04-28T12:46:48.069Z,17.28
2023-04-28T12:49:16.359Z,17.16
2023-04-28T12:51:43.817Z,17.27
2023-04-28T12:54:11.282Z,17.44
2023-04-28T12:56:38.761Z,17.42
2023-04-28T12:59:06.206Z,17.34
2023-04-28T13:01:33.931Z,17.36
2023-04-28T13:04:01.669Z,17.30
2023-04-28T13:06:29.582Z,17.46
2023-04-28T13:08:57.022Z,17.25
2023-04-28T13:11:27.198Z,17.15
2023-04-28T13:13:55.514Z,17.28
2023-04-28T13:16:25.128Z,17.21
2023-04-28T13:18:52.977Z,17.00
2023-04-28T13:21:20.483Z,17.27
2023-04-28T13:23:47.951Z,17.12
2023-04-28T13:26:15.386Z,17.14
2023-04-28T13:28:42.921Z,16.75
2023-04-28T13:31:10.430Z,16.74
2023-04-28T13:33:37.887Z,16.99
2023-04-28T13:36:08.019Z,16.61
2023-04-28T13:38:35.690Z,16.88
2023-04-28T13:41:03.354Z,17.01
2023-04-28T13:43:31.168Z,16.91
2023-04-28T13:45:58.924Z,16.71
2023-04-28T13:48:27.681Z,16.57
2023-04-28T13:50:55.451Z,16.47
2023-04-28T13:53:22.937Z,16.64
2023-04-28T13:55:51.108Z,16.50
2023-04-28T13:58:18.625Z,16.48
2023-04-28T14:00:46.055Z,16.42
2023-04-28T14:03:13.634Z,16.63
2023-04-28T14:05:48.901Z,16.58
2023-04-28T14:08:19.426Z,16.16
2023-04-28T14:10:48.358Z,16.45
2023-04-28T14:13:16.101Z,16.63
2023-04-28T14:15:55.036Z,16.64
2023-04-28T14:18:25.764Z,16.42
2023-04-28T14:20:54.132Z,16.44
2023-04-28T14:23:21.754Z,16.41
2023-04-28T14:25:50.093Z,16.73
2023-04-28T14:28:17.502Z,16.39
2023-04-28T14:30:45.049Z,16.89
2023-04-28T14:33:12.564Z,16.77
2023-04-28T14:35:41.434Z,16.94
2023-04-28T14:38:08.949Z,16.92
2023-04-28T14:40:36.543Z,16.87
2023-04-28T14:43:03.990Z,17.04
2023-04-28T14:45:31.481Z,16.88
2023-04-28T14:47:59.123Z,16.65
2023-04-28T14:50:26.824Z,16.75
2023-04-28T14:52:54.328Z,16.69
2023-04-28T14:55:22.342Z,16.90
2023-04-28T14:57:49.776Z,16.78
2023-04-28T15:00:17.521Z,16.68
2023-04-28T15:02:45.033Z,16.49
2023-04-28T15:05:12.611Z,16.55
2023-04-28T15:07:40.127Z,16.58
2023-04-28T15:10:07.772Z,16.49
2023-04-28T15:12:37.023Z,16.63
2023-04-28T15:15:04.586Z,16.50
2023-04-28T15:17:32.170Z,16.54
2023-04-28T15:19:59.586Z,16.42
2023-04-28T15:22:27.005Z,16.18
2023-04-28T15:24:55.777Z,16.19
2023-04-28T15:27:23.255Z,15.97
2023-04-28T15:29:50.730Z,16.17
2023-04-28T15:32:18.332Z,16.16
2023-04-28T15:34:45.857Z,16.10
2023-04-28T15:37:39.293Z,15.95
2023-04-28T15:40:07.005Z,16.08
2023-04-28T15:42:34.494Z,16.30
2023-04-28T15:45:10.298Z,16.24
2023-04-28T15:47:39.042Z,16.25
2023-04-28T15:50:07.263Z,16.41
2023-04-28T15:52:34.735Z,16.49
2023-04-28T15:55:02.371Z,16.46
2023-04-28T15:57:30.054Z,16.57
2023-04-28T15:59:58.443Z,16.56
2023-04-28T16:02:26.240Z,16.39
2023-04-28T16:04:54.107Z,16.68
2023-04-28T16:07:22.295Z,16.46
2023-04-28T16:09:49.704Z,16.47
2023-04-28T16:12:17.356Z,16.69
2023-04-28T16:14:44.787Z,16.56
2023-04-28T16:17:12.192Z,16.62
2023-04-28T16:19:39.769Z,16.59
2023-04-28T16:22:07.156Z,16.47
2023-04-28T16:24:36.442Z,16.41
2023-04-28T16:27:04.556Z,16.29
2023-04-28T16:29:31.996Z,16.15
2023-04-28T16:31:59.455Z,16.30
2023-04-28T16:34:27.066Z,16.28
2023-04-28T16:36:54.462Z,15.90
2023-04-28T16:39:21.934Z,16.09
2023-04-28T16:41:49.615Z,15.92
2023-04-28T16:44:17.034Z,16.08
2023-04-28T16:46:44.464Z,15.93
2023-04-28T16:49:12.945Z,15.88
2023-04-28T16:51:40.495Z,16.06
2023-04-28T16:54:07.942Z,15.96
2023-04-28T16:56:38.976Z,16.15
2023-04-28T16:59:07.088Z,15.92
2023-04-28T17:01:34.680Z,15.54
2023-04-28T17:04:06.657Z,15.79
2023-04-28T17:06:34.385Z,15.92
2023-04-28T17:09:01.940Z,15.71
2023-04-28T17:11:29.298Z,15.83
2023-04-28T17:13:56.693Z,15.77
2023-04-28T17:16:24.108Z,15.94
2023-04-28T17:18:52.886Z,15.82
2023-04-28T17:21:20.384Z,15.88
2023-04-28T17:23:47.815Z,15.87
2023-04-28T17:26:16.365Z,15.49
2023-04-28T17:28:44.194Z,15.12
2023-04-28T17:31:13.432Z,15.13
2023-04-28T17:33:40.866Z,14.71
2023-04-28T17:36:08.401Z,14.87
2023-04-28T17:38:36.282Z,15.00
2023-04-28T17:41:03.886Z,14.87
2023-04-28T17:43:31.579Z,14.87
2023-04-28T17:45:59.126Z,14.81
2023-04-28T17:48:26.602Z,14.94
2023-04-28T17:50:54.324Z,14.87
2023-04-28T17:53:21.781Z,14.88
2023-04-28T17:55:49.307Z,14.91
2023-04-28T17:58:16.675Z,14.55
2023-04-28T18:00:44.060Z,14.71
2023-04-28T18:03:11.607Z,14.64
2023-04-28T18:05:39.098Z,14.68
2023-04-28T18:08:06.502Z,14.67
2023-04-28T18:10:33.863Z,14.71
2023-04-28T18:13:02.349Z,14.61
2023-04-28T18:15:30.574Z,14.90
2023-04-28T18:17:58.075Z,14.52
2023-04-28T18:20:25.786Z,14.53
2023-04-28T18:22:53.250Z,14.64
2023-04-28T18:25:20.623Z,14.67
2023-04-28T18:27:48.070Z,14.59
2023-04-28T18:30:15.508Z,14.27
2023-04-28T18:32:43.177Z,14.49
2023-04-28T18:35:10.844Z,14.47
2023-04-28T18:37:38.229Z,14.36
2023-04-28T18:40:06.517Z,14.53
2023-04-28T18:42:34.121Z,14.56
2023-04-28T18:45:01.696Z,14.61
2023-04-28T18:47:29.262Z,14.43
2023-04-28T18:49:57.343Z,14.59
2023-04-28T18:52:24.942Z,14.38
2023-04-28T18:54:52.349Z,14.36
2023-04-28T18:57:20.089Z,14.48
2023-04-28T18:59:49.087Z,14.21
2023-04-28T19:02:17.725Z,14.39
2023-04-28T19:04:46.137Z,14.20
2023-04-28T19:07:13.592Z,14.18
2023-04-28T19:09:42.255Z,14.26
2023-04-28T19:12:09.787Z,14.32
2023-04-28T19:14:37.367Z,14.27
2023-04-28T19:17:05.060Z,14.15
2023-04-28T19:19:32.971Z,14.11
2023-04-28T19:22:03.017Z,14.04
2023-04-28T19:24:30.485Z,14.20
2023-04-28T19:26:59.712Z,14.24
2023-04-28T19:29:27.142Z,13.86
2023-04-28T19:31:54.614Z,13.85
2023-04-28T19:34:22.044Z,13.89
2023-04-28T19:36:49.608Z,13.94
2023-04-28T19:39:17.511Z,13.91
2023-04-28T19:41:46.863Z,14.05
2023-04-28T19:44:14.316Z,14.12
2023-04-28T19:46:42.569Z,14.03
2023-04-28T19:49:11.179Z,14.14
2023-04-28T19:51:38.675Z,14.05
2023-04-28T19:54:06.141Z,13.85
2023-04-28T19:56:33.672Z,13.77
2023-04-28T19:59:01.233Z,13.81
2023-04-28T20:01:29.103Z,13.80
2023-04-28T20:03:56.761Z,13.80
2023-04-28T20:06:24.377Z,13.50
2023-04-28T20:08:51.853Z,13.70
2023-04-28T20:11:19.563Z,13.65
2023-04-28T20:13:47.009Z,13.64
2023-04-28T20:16:14.487Z,13.73
2023-04-28T20:18:41.912Z,13.74
2023-04-28T20:21:09.772Z,13.40
2023-04-28T20:23:37.792Z,13.45
2023-04-28T20:26:05.727Z,13.32
2023-04-28T20:28:33.188Z,13.20
2023-04-28T20:31:00.798Z,13.37
2023-04-28T20:33:28.356Z,13.43
2023-04-28T20:35:55.786Z,13.29
2023-04-28T20:38:23.547Z,12.99
2023-04-28T20:40:51.064Z,13.06
2023-04-28T20:43:18.603Z,13.18
2023-04-28T20:45:46.171Z,13.14
2023-04-28T20:48:13.804Z,12.84
2023-04-28T20:50:43.048Z,13.15
2023-04-28T20:53:10.569Z,13.09
2023-04-28T20:55:38.004Z,13.01
2023-04-28T20:58:06.890Z,13.14
2023-04-28T21:00:38.209Z,12.94
2023-04-28T21:03:05.848Z,12.68
2023-04-28T21:05:33.448Z,12.97
2023-04-28T21:08:00.981Z,12.84
2023-04-28T21:10:28.459Z,12.80
2023-04-28T21:12:55.913Z,12.86
2023-04-28T21:15:23.272Z,13.02
2023-04-28T21:17:50.757Z,13.15
2023-04-28T21:20:18.362Z,12.76
2023-04-28T21:22:45.912Z,12.48
2023-04-28T21:25:13.341Z,12.54
2023-04-28T21:27:40.766Z,12.40
2023-04-28T21:30:08.502Z,12.45
2023-04-28T21:32:35.918Z,12.51
2023-04-28T21:35:03.418Z,12.51
2023-04-28T21:37:31.802Z,12.55
2023-04-28T21:39:59.270Z,12.51
2023-04-28T21:42:31.613Z,12.37
2023-04-28T21:44:59.351Z,12.29
2023-04-28T21:47:26.932Z,12.38
2023-04-28T21:49:54.427Z,12.23
2023-04-28T21:52:21.945Z,12.48
2023-04-28T21:54:49.382Z,12.49
2023-04-28T21:57:16.875Z,12.52
2023-04-28T21:59:44.389Z,12.65
2023-04-28T22:02:12.436Z,12.38
2023-04-28T22:04:40.131Z,12.12
2023-04-28T22:07:07.905Z,12.13
2023-04-28T22:09:35.398Z,12.31
2023-04-28T22:12:03.069Z,12.27
2023-04-28T22:17:00.952Z,12.31
2023-04-28T22:19:28.416Z,12.26
2023-04-28T22:21:55.799Z,12.35
2023-04-28T22:24:23.230Z,12.13
2023-04-28T22:26:51.004Z,12.12
2023-04-28T22:29:20.803Z,12.44
2023-04-28T22:31:48.327Z,12.40
2023-04-28T22:34:16.846Z,12.37
2023-04-28T22:36:45.056Z,12.29
2023-04-28T22:39:12.781Z,12.20
2023-04-28T22:41:40.216Z,12.27
2023-04-28T22:44:07.725Z,12.24
2023-04-28T22:46:35.596Z,12.20
2023-04-28T22:49:04.965Z,12.22
2023-04-28T22:51:32.721Z,12.14
2023-04-28T22:54:01.471Z,12.47
2023-04-28T22:56:28.955Z,12.37
2023-04-28T22:58:56.470Z,12.23
2023-04-28T23:01:24.135Z,12.40
2023-04-28T23:03:51.760Z,12.18
2023-04-28T23:06:19.307Z,12.45
2023-04-28T23:08:46.746Z,12.27
2023-04-28T23:11:14.133Z,12.31
2023-04-28T23:13:41.552Z,12.39
2023-04-28T23:16:09.230Z,12.38
2023-04-28T23:18:36.679Z,12.37
2023-04-28T23:21:04.235Z,12.47
2023-04-28T23:23:32.667Z,12.50
2023-04-28T23:26:00.252Z,12.29
2023-04-28T23:28:27.592Z,12.14
2023-04-28T23:30:55.094Z,12.37
2023-04-28T23:33:22.464Z,12.32
2023-04-28T23:35:49.840Z,12.20
2023-04-28T23:38:17.338Z,12.25
2023-04-28T23:40:44.673Z,12.19
2023-04-28T23:43:12.912Z,12.09
2023-04-28T23:45:40.758Z,12.09
2023-04-28T23:48:08.204Z,11.98
2023-04-28T23:50:35.637Z,12.11
2023-04-28T23:53:03.100Z,11.90
2023-04-28T23:55:30.536Z,12.00
2023-04-28T23:57:58.344Z,12.32
